sensor_id;sensor_type;location;lat;lon;timestamp;P1;durP1;ratioP1;P2;durP2;ratioP2
809;SDS011;387;48.772;9.186;2023-04-19T00:00:29;14.60;;;8.83;;
809;SDS011;387;48.772;9.186;2023-04-19T00:02:54;16.00;;;9.57;;
809;SDS011;387;48.772;9.186;2023-04-19T00:05:20;18.17;;;9.83;;
809;SDS011;387;48.772;9.186;2023-04-19T00:07:48;15.77;;;9.83;;
809;SDS011;387;48.772;9.186;2023-04-19T00:10:14;16.63;;;9.60;;
809;SDS011;387;48.772;9.186;2023-04-19T00:12:40;16.57;;;9.47;;
809;SDS011;387;48.772;9.186;2023-04-19T00:15:06;17.80;;;10.30;;
809;SDS011;387;48.772;9.186;2023-04-19T00:17:32;17.80;;;10.00;;
809;SDS011;387;48.772;9.186;2023-04-19T00:19:58;18.63;;;9.63;;
809;SDS011;387;48.772;9.186;2023-04-19T00:22:24;20.27;;;10.30;;
809;SDS011;387;48.772;9.186;2023-04-19T00:24:50;19.17;;;10.70;;
809;SDS011;387;48.772;9.186;2023-04-19T00:27:17;20.07;;;10.53;;
809;SDS011;387;48.772;9.186;2023-04-19T00:29:43;19.67;;;10.70;;
809;SDS011;387;48.772;9.186;2023-04-19T00:32:08;17.03;;;9.63;;
809;SDS011;387;48.772;9.186;2023-04-19T00:34:35;19.37;;;10.70;;
809;SDS011;387;48.772;9.186;2023-04-19T00:37:00;21.97;;;10.37;;
809;SDS011;387;48.772;9.186;2023-04-19T00:39:28;19.47;;;10.97;;
809;SDS011;387;48.772;9.186;2023-04-19T00:41:54;19.40;;;10.73;;
809;SDS011;387;48.772;9.186;2023-04-19T00:44:21;19.87;;;10.53;;
809;SDS011;387;48.772;9.186;2023-04-19T00:46:47;21.50;;;11.30;;
809;SDS011;387;48.772;9.186;2023-04-19T00:49:13;22.03;;;10.83;;
809;SDS011;387;48.772;9.186;2023-04-19T00:51:39;22.20;;;11.57;;
809;SDS011;387;48.772;9.186;2023-04-19T00:54:05;19.37;;;11.50;;
809;SDS011;387;48.772;9.186;2023-04-19T00:56:33;21.00;;;11.90;;
809;SDS011;387;48.772;9.186;2023-04-19T00:58:58;18.53;;;10.90;;
809;SDS011;387;48.772;9.186;2023-04-19T01:01:24;26.00;;;12.27;;
809;SDS011;387;48.772;9.186;2023-04-19T01:03:50;22.63;;;11.40;;
809;SDS011;387;48.772;9.186;2023-04-19T01:06:15;24.03;;;11.93;;
809;SDS011;387;48.772;9.186;2023-04-19T01:08:41;22.30;;;11.93;;
809;SDS011;387;48.772;9.186;2023-04-19T01:11:07;18.20;;;11.03;;
809;SDS011;387;48.772;9.186;2023-04-19T01:13:33;27.03;;;12.37;;
809;SDS011;387;48.772;9.186;2023-04-19T01:15:59;27.77;;;11.73;;
809;SDS011;387;48.772;9.186;2023-04-19T01:18:24;21.73;;;11.73;;
809;SDS011;387;48.772;9.186;2023-04-19T01:20:53;20.20;;;12.30;;
809;SDS011;387;48.772;9.186;2023-04-19T01:23:19;22.17;;;11.43;;
809;SDS011;387;48.772;9.186;2023-04-19T01:25:45;22.40;;;13.03;;
809;SDS011;387;48.772;9.186;2023-04-19T01:28:11;24.33;;;12.20;;
809;SDS011;387;48.772;9.186;2023-04-19T01:30:37;24.17;;;13.47;;
809;SDS011;387;48.772;9.186;2023-04-19T01:33:02;23.27;;;11.83;;
809;SDS011;387;48.772;9.186;2023-04-19T01:35:28;25.93;;;12.30;;
809;SDS011;387;48.772;9.186;2023-04-19T01:37:53;21.10;;;12.17;;
809;SDS011;387;48.772;9.186;2023-04-19T01:40:23;23.50;;;12.53;;
809;SDS011;387;48.772;9.186;2023-04-19T01:42:49;23.93;;;12.00;;
809;SDS011;387;48.772;9.186;2023-04-19T01:45:15;20.53;;;11.23;;
809;SDS011;387;48.772;9.186;2023-04-19T01:47:41;23.17;;;12.00;;
809;SDS011;387;48.772;9.186;2023-04-19T01:50:07;24.53;;;12.70;;
809;SDS011;387;48.772;9.186;2023-04-19T01:52:32;25.37;;;11.73;;
809;SDS011;387;48.772;9.186;2023-04-19T01:54:58;23.07;;;10.90;;
809;SDS011;387;48.772;9.186;2023-04-19T01:57:24;20.10;;;11.43;;
809;SDS011;387;48.772;9.186;2023-04-19T01:59:51;26.83;;;12.00;;
809;SDS011;387;48.772;9.186;2023-04-19T02:02:19;25.47;;;12.80;;
809;SDS011;387;48.772;9.186;2023-04-19T02:04:45;21.53;;;11.63;;
809;SDS011;387;48.772;9.186;2023-04-19T02:07:10;24.67;;;13.20;;
809;SDS011;387;48.772;9.186;2023-04-19T02:09:36;20.50;;;11.73;;
809;SDS011;387;48.772;9.186;2023-04-19T02:12:03;25.40;;;12.83;;
809;SDS011;387;48.772;9.186;2023-04-19T02:14:29;23.07;;;12.10;;
809;SDS011;387;48.772;9.186;2023-04-19T02:16:55;26.43;;;12.30;;
809;SDS011;387;48.772;9.186;2023-04-19T02:19:21;27.43;;;14.60;;
809;SDS011;387;48.772;9.186;2023-04-19T02:21:47;25.27;;;13.33;;
809;SDS011;387;48.772;9.186;2023-04-19T02:24:12;23.47;;;11.90;;
809;SDS011;387;48.772;9.186;2023-04-19T02:26:38;25.20;;;13.50;;
809;SDS011;387;48.772;9.186;2023-04-19T02:29:04;27.40;;;13.10;;
809;SDS011;387;48.772;9.186;2023-04-19T02:31:30;24.83;;;13.10;;
809;SDS011;387;48.772;9.186;2023-04-19T02:33:56;24.67;;;13.87;;
809;SDS011;387;48.772;9.186;2023-04-19T02:36:22;25.93;;;12.87;;
809;SDS011;387;48.772;9.186;2023-04-19T02:38:47;27.33;;;12.80;;
809;SDS011;387;48.772;9.186;2023-04-19T02:41:13;24.80;;;13.47;;
809;SDS011;387;48.772;9.186;2023-04-19T02:43:38;25.77;;;12.87;;
809;SDS011;387;48.772;9.186;2023-04-19T02:46:04;26.33;;;12.43;;
809;SDS011;387;48.772;9.186;2023-04-19T02:48:30;28.50;;;12.97;;
809;SDS011;387;48.772;9.186;2023-04-19T02:50:56;26.53;;;13.97;;
809;SDS011;387;48.772;9.186;2023-04-19T02:53:21;24.70;;;12.50;;
809;SDS011;387;48.772;9.186;2023-04-19T02:55:47;22.60;;;13.00;;
809;SDS011;387;48.772;9.186;2023-04-19T02:58:12;25.47;;;13.07;;
809;SDS011;387;48.772;9.186;2023-04-19T03:00:38;23.67;;;13.13;;
809;SDS011;387;48.772;9.186;2023-04-19T03:03:03;26.33;;;13.73;;
809;SDS011;387;48.772;9.186;2023-04-19T03:05:29;24.07;;;13.33;;
809;SDS011;387;48.772;9.186;2023-04-19T03:07:55;30.03;;;14.47;;
809;SDS011;387;48.772;9.186;2023-04-19T03:10:20;33.47;;;14.90;;
809;SDS011;387;48.772;9.186;2023-04-19T03:12:46;25.60;;;13.13;;
809;SDS011;387;48.772;9.186;2023-04-19T03:15:12;34.43;;;16.03;;
809;SDS011;387;48.772;9.186;2023-04-19T03:17:37;25.83;;;14.27;;
809;SDS011;387;48.772;9.186;2023-04-19T03:20:03;30.73;;;14.17;;
809;SDS011;387;48.772;9.186;2023-04-19T03:22:34;28.27;;;13.50;;
809;SDS011;387;48.772;9.186;2023-04-19T03:25:00;29.20;;;14.40;;
809;SDS011;387;48.772;9.186;2023-04-19T03:27:26;27.10;;;15.03;;
809;SDS011;387;48.772;9.186;2023-04-19T03:29:51;26.70;;;14.30;;
809;SDS011;387;48.772;9.186;2023-04-19T03:32:17;27.70;;;13.87;;
809;SDS011;387;48.772;9.186;2023-04-19T03:34:43;28.43;;;15.50;;
809;SDS011;387;48.772;9.186;2023-04-19T03:37:08;30.47;;;13.93;;
809;SDS011;387;48.772;9.186;2023-04-19T03:39:34;31.03;;;14.70;;
809;SDS011;387;48.772;9.186;2023-04-19T03:41:59;24.40;;;13.23;;
809;SDS011;387;48.772;9.186;2023-04-19T03:44:25;29.50;;;15.33;;
809;SDS011;387;48.772;9.186;2023-04-19T03:46:51;30.43;;;14.33;;
809;SDS011;387;48.772;9.186;2023-04-19T03:49:16;31.13;;;15.30;;
809;SDS011;387;48.772;9.186;2023-04-19T03:51:42;27.00;;;14.17;;
809;SDS011;387;48.772;9.186;2023-04-19T03:54:08;26.60;;;13.20;;
809;SDS011;387;48.772;9.186;2023-04-19T03:56:34;28.43;;;14.30;;
809;SDS011;387;48.772;9.186;2023-04-19T03:58:59;36.20;;;16.67;;
809;SDS011;387;48.772;9.186;2023-04-19T04:01:25;27.77;;;14.80;;
809;SDS011;387;48.772;9.186;2023-04-19T04:03:50;30.90;;;14.60;;
809;SDS011;387;48.772;9.186;2023-04-19T04:06:16;30.33;;;14.30;;
809;SDS011;387;48.772;9.186;2023-04-19T04:08:42;36.50;;;14.40;;
809;SDS011;387;48.772;9.186;2023-04-19T04:11:07;32.30;;;14.10;;
809;SDS011;387;48.772;9.186;2023-04-19T04:13:33;31.73;;;16.20;;
809;SDS011;387;48.772;9.186;2023-04-19T04:15:59;30.50;;;15.50;;
809;SDS011;387;48.772;9.186;2023-04-19T04:18:24;33.80;;;15.30;;
809;SDS011;387;48.772;9.186;2023-04-19T04:20:52;25.47;;;14.20;;
809;SDS011;387;48.772;9.186;2023-04-19T04:23:18;34.57;;;15.27;;
809;SDS011;387;48.772;9.186;2023-04-19T04:25:45;30.43;;;16.40;;
809;SDS011;387;48.772;9.186;2023-04-19T04:28:11;40.00;;;15.00;;
809;SDS011;387;48.772;9.186;2023-04-19T04:30:37;26.00;;;14.07;;
809;SDS011;387;48.772;9.186;2023-04-19T04:33:04;36.87;;;17.03;;
809;SDS011;387;48.772;9.186;2023-04-19T04:35:30;31.93;;;15.17;;
809;SDS011;387;48.772;9.186;2023-04-19T04:37:55;28.27;;;14.67;;
809;SDS011;387;48.772;9.186;2023-04-19T04:40:21;26.30;;;14.30;;
809;SDS011;387;48.772;9.186;2023-04-19T04:42:47;30.77;;;14.87;;
809;SDS011;387;48.772;9.186;2023-04-19T04:45:13;34.60;;;16.47;;
809;SDS011;387;48.772;9.186;2023-04-19T04:47:42;32.33;;;15.40;;
809;SDS011;387;48.772;9.186;2023-04-19T04:50:07;30.93;;;14.77;;
809;SDS011;387;48.772;9.186;2023-04-19T04:52:33;31.80;;;15.50;;
809;SDS011;387;48.772;9.186;2023-04-19T04:54:59;29.90;;;15.00;;
809;SDS011;387;48.772;9.186;2023-04-19T04:57:24;30.97;;;15.10;;
809;SDS011;387;48.772;9.186;2023-04-19T04:59:50;29.10;;;14.30;;
809;SDS011;387;48.772;9.186;2023-04-19T05:02:15;27.70;;;14.00;;
809;SDS011;387;48.772;9.186;2023-04-19T05:04:41;27.10;;;14.20;;
809;SDS011;387;48.772;9.186;2023-04-19T05:07:07;28.77;;;14.87;;
809;SDS011;387;48.772;9.186;2023-04-19T05:09:32;27.43;;;14.20;;
809;SDS011;387;48.772;9.186;2023-04-19T05:11:58;30.10;;;14.20;;
809;SDS011;387;48.772;9.186;2023-04-19T05:14:23;33.30;;;16.10;;
809;SDS011;387;48.772;9.186;2023-04-19T05:16:49;28.57;;;13.43;;
809;SDS011;387;48.772;9.186;2023-04-19T05:19:14;30.20;;;14.70;;
809;SDS011;387;48.772;9.186;2023-04-19T05:21:40;30.20;;;14.80;;
809;SDS011;387;48.772;9.186;2023-04-19T05:24:06;28.67;;;14.77;;
809;SDS011;387;48.772;9.186;2023-04-19T05:26:33;32.50;;;15.13;;
809;SDS011;387;48.772;9.186;2023-04-19T05:28:59;28.97;;;13.67;;
809;SDS011;387;48.772;9.186;2023-04-19T05:31:25;26.73;;;14.77;;
809;SDS011;387;48.772;9.186;2023-04-19T05:33:50;30.50;;;14.57;;
809;SDS011;387;48.772;9.186;2023-04-19T05:36:16;31.80;;;14.87;;
809;SDS011;387;48.772;9.186;2023-04-19T05:38:41;30.93;;;14.47;;
809;SDS011;387;48.772;9.186;2023-04-19T05:41:07;28.33;;;13.53;;
809;SDS011;387;48.772;9.186;2023-04-19T05:43:32;36.47;;;15.70;;
809;SDS011;387;48.772;9.186;2023-04-19T05:45:58;32.20;;;15.50;;
809;SDS011;387;48.772;9.186;2023-04-19T05:48:24;25.60;;;13.43;;
809;SDS011;387;48.772;9.186;2023-04-19T05:50:49;32.13;;;15.07;;
809;SDS011;387;48.772;9.186;2023-04-19T05:53:18;34.30;;;15.47;;
809;SDS011;387;48.772;9.186;2023-04-19T05:55:43;33.93;;;14.40;;
809;SDS011;387;48.772;9.186;2023-04-19T05:58:09;31.53;;;14.40;;
809;SDS011;387;48.772;9.186;2023-04-19T06:00:35;27.90;;;14.80;;
809;SDS011;387;48.772;9.186;2023-04-19T06:03:01;30.47;;;15.47;;
809;SDS011;387;48.772;9.186;2023-04-19T06:05:26;31.23;;;14.80;;
809;SDS011;387;48.772;9.186;2023-04-19T06:07:52;30.23;;;14.57;;
809;SDS011;387;48.772;9.186;2023-04-19T06:10:20;25.37;;;13.33;;
809;SDS011;387;48.772;9.186;2023-04-19T06:12:46;24.80;;;14.23;;
809;SDS011;387;48.772;9.186;2023-04-19T06:15:12;30.33;;;15.20;;
809;SDS011;387;48.772;9.186;2023-04-19T06:17:37;28.50;;;14.70;;
809;SDS011;387;48.772;9.186;2023-04-19T06:20:03;28.87;;;14.30;;
809;SDS011;387;48.772;9.186;2023-04-19T06:22:31;28.90;;;14.77;;
809;SDS011;387;48.772;9.186;2023-04-19T06:24:57;31.47;;;15.63;;
809;SDS011;387;48.772;9.186;2023-04-19T06:27:22;26.40;;;13.10;;
809;SDS011;387;48.772;9.186;2023-04-19T06:29:48;29.53;;;14.10;;
809;SDS011;387;48.772;9.186;2023-04-19T06:32:13;28.43;;;14.80;;
809;SDS011;387;48.772;9.186;2023-04-19T06:34:39;29.77;;;14.90;;
809;SDS011;387;48.772;9.186;2023-04-19T06:37:04;26.63;;;13.80;;
809;SDS011;387;48.772;9.186;2023-04-19T06:39:30;28.50;;;13.57;;
809;SDS011;387;48.772;9.186;2023-04-19T06:41:56;22.80;;;12.67;;
809;SDS011;387;48.772;9.186;2023-04-19T06:44:21;26.27;;;13.40;;
809;SDS011;387;48.772;9.186;2023-04-19T06:46:47;23.57;;;12.50;;
809;SDS011;387;48.772;9.186;2023-04-19T06:49:12;27.70;;;13.67;;
809;SDS011;387;48.772;9.186;2023-04-19T06:51:38;29.27;;;14.50;;
809;SDS011;387;48.772;9.186;2023-04-19T06:54:04;28.80;;;13.53;;
809;SDS011;387;48.772;9.186;2023-04-19T06:56:42;26.43;;;13.27;;
809;SDS011;387;48.772;9.186;2023-04-19T06:59:13;26.87;;;13.40;;
809;SDS011;387;48.772;9.186;2023-04-19T07:01:41;25.93;;;12.53;;
809;SDS011;387;48.772;9.186;2023-04-19T07:04:07;29.83;;;14.10;;
809;SDS011;387;48.772;9.186;2023-04-19T07:06:36;26.30;;;13.40;;
809;SDS011;387;48.772;9.186;2023-04-19T07:09:03;27.27;;;14.83;;
809;SDS011;387;48.772;9.186;2023-04-19T07:11:29;25.00;;;13.60;;
809;SDS011;387;48.772;9.186;2023-04-19T07:13:55;25.33;;;12.83;;
809;SDS011;387;48.772;9.186;2023-04-19T07:16:21;27.70;;;14.30;;
809;SDS011;387;48.772;9.186;2023-04-19T07:18:47;34.13;;;14.87;;
809;SDS011;387;48.772;9.186;2023-04-19T07:21:12;30.97;;;13.37;;
809;SDS011;387;48.772;9.186;2023-04-19T07:23:38;27.70;;;13.30;;
809;SDS011;387;48.772;9.186;2023-04-19T07:26:04;26.93;;;12.77;;
809;SDS011;387;48.772;9.186;2023-04-19T07:28:30;27.13;;;13.83;;
809;SDS011;387;48.772;9.186;2023-04-19T07:30:56;25.87;;;11.97;;
809;SDS011;387;48.772;9.186;2023-04-19T07:33:22;23.50;;;12.03;;
809;SDS011;387;48.772;9.186;2023-04-19T07:35:48;23.50;;;13.20;;
809;SDS011;387;48.772;9.186;2023-04-19T07:38:15;32.93;;;15.77;;
809;SDS011;387;48.772;9.186;2023-04-19T07:40:41;22.63;;;12.27;;
809;SDS011;387;48.772;9.186;2023-04-19T07:43:06;25.10;;;12.93;;
809;SDS011;387;48.772;9.186;2023-04-19T07:45:32;24.87;;;13.03;;
809;SDS011;387;48.772;9.186;2023-04-19T07:47:57;25.70;;;12.90;;
809;SDS011;387;48.772;9.186;2023-04-19T07:50:26;23.10;;;12.67;;
809;SDS011;387;48.772;9.186;2023-04-19T07:52:52;27.23;;;12.30;;
809;SDS011;387;48.772;9.186;2023-04-19T07:55:17;28.20;;;13.43;;
809;SDS011;387;48.772;9.186;2023-04-19T07:57:43;26.43;;;14.60;;
809;SDS011;387;48.772;9.186;2023-04-19T08:00:12;29.33;;;13.27;;
809;SDS011;387;48.772;9.186;2023-04-19T08:02:45;23.63;;;12.13;;
809;SDS011;387;48.772;9.186;2023-04-19T08:05:12;32.23;;;13.97;;
809;SDS011;387;48.772;9.186;2023-04-19T08:07:40;31.23;;;13.60;;
809;SDS011;387;48.772;9.186;2023-04-19T08:10:06;25.40;;;13.13;;
809;SDS011;387;48.772;9.186;2023-04-19T08:12:32;22.30;;;11.90;;
809;SDS011;387;48.772;9.186;2023-04-19T08:14:58;21.20;;;11.60;;
809;SDS011;387;48.772;9.186;2023-04-19T08:17:23;23.47;;;11.03;;
809;SDS011;387;48.772;9.186;2023-04-19T08:19:50;22.60;;;12.47;;
809;SDS011;387;48.772;9.186;2023-04-19T08:22:16;22.70;;;11.70;;
809;SDS011;387;48.772;9.186;2023-04-19T08:24:43;25.57;;;12.73;;
809;SDS011;387;48.772;9.186;2023-04-19T08:27:09;22.27;;;12.20;;
809;SDS011;387;48.772;9.186;2023-04-19T08:29:35;21.17;;;10.47;;
809;SDS011;387;48.772;9.186;2023-04-19T08:32:03;19.90;;;10.83;;
809;SDS011;387;48.772;9.186;2023-04-19T08:34:29;18.60;;;9.50;;
809;SDS011;387;48.772;9.186;2023-04-19T08:36:55;24.87;;;11.07;;
809;SDS011;387;48.772;9.186;2023-04-19T08:39:21;16.40;;;9.60;;
809;SDS011;387;48.772;9.186;2023-04-19T08:41:47;15.13;;;9.20;;
809;SDS011;387;48.772;9.186;2023-04-19T08:44:14;17.40;;;9.20;;
809;SDS011;387;48.772;9.186;2023-04-19T08:46:41;15.80;;;9.20;;
809;SDS011;387;48.772;9.186;2023-04-19T08:49:08;15.87;;;9.60;;
809;SDS011;387;48.772;9.186;2023-04-19T08:51:34;18.30;;;8.83;;
809;SDS011;387;48.772;9.186;2023-04-19T08:54:05;18.03;;;8.57;;
809;SDS011;387;48.772;9.186;2023-04-19T08:56:31;21.43;;;9.40;;
809;SDS011;387;48.772;9.186;2023-04-19T08:58:57;22.73;;;13.90;;
809;SDS011;387;48.772;9.186;2023-04-19T09:01:23;16.60;;;8.50;;
809;SDS011;387;48.772;9.186;2023-04-19T09:03:48;17.00;;;9.50;;
809;SDS011;387;48.772;9.186;2023-04-19T09:06:14;19.07;;;9.80;;
809;SDS011;387;48.772;9.186;2023-04-19T09:08:40;18.60;;;10.07;;
809;SDS011;387;48.772;9.186;2023-04-19T09:11:06;17.93;;;9.33;;
809;SDS011;387;48.772;9.186;2023-04-19T09:13:32;15.67;;;8.33;;
809;SDS011;387;48.772;9.186;2023-04-19T09:16:00;19.13;;;10.50;;
809;SDS011;387;48.772;9.186;2023-04-19T09:18:26;16.40;;;8.87;;
809;SDS011;387;48.772;9.186;2023-04-19T09:20:52;17.93;;;9.30;;
809;SDS011;387;48.772;9.186;2023-04-19T09:23:22;20.40;;;9.20;;
809;SDS011;387;48.772;9.186;2023-04-19T09:28:26;24.10;;;9.60;;
809;SDS011;387;48.772;9.186;2023-04-19T09:30:56;17.60;;;8.70;;
809;SDS011;387;48.772;9.186;2023-04-19T09:33:31;16.33;;;10.07;;
809;SDS011;387;48.772;9.186;2023-04-19T09:35:59;19.07;;;10.37;;
809;SDS011;387;48.772;9.186;2023-04-19T09:38:25;19.40;;;10.63;;
809;SDS011;387;48.772;9.186;2023-04-19T09:40:51;20.50;;;11.13;;
809;SDS011;387;48.772;9.186;2023-04-19T09:43:23;20.20;;;10.90;;
809;SDS011;387;48.772;9.186;2023-04-19T09:45:51;19.67;;;10.33;;
809;SDS011;387;48.772;9.186;2023-04-19T09:48:17;21.30;;;11.30;;
809;SDS011;387;48.772;9.186;2023-04-19T09:50:50;18.47;;;10.97;;
809;SDS011;387;48.772;9.186;2023-04-19T09:53:17;21.93;;;12.57;;
809;SDS011;387;48.772;9.186;2023-04-19T09:55:44;19.60;;;10.10;;
809;SDS011;387;48.772;9.186;2023-04-19T09:58:11;21.30;;;10.90;;
809;SDS011;387;48.772;9.186;2023-04-19T10:00:37;20.83;;;10.70;;
809;SDS011;387;48.772;9.186;2023-04-19T10:03:05;19.87;;;10.93;;
809;SDS011;387;48.772;9.186;2023-04-19T10:05:33;17.60;;;10.13;;
809;SDS011;387;48.772;9.186;2023-04-19T10:08:01;23.63;;;11.57;;
809;SDS011;387;48.772;9.186;2023-04-19T10:10:28;22.03;;;10.30;;
809;SDS011;387;48.772;9.186;2023-04-19T10:12:56;20.70;;;10.53;;
809;SDS011;387;48.772;9.186;2023-04-19T10:15:24;22.33;;;10.80;;
809;SDS011;387;48.772;9.186;2023-04-19T10:17:51;29.43;;;11.60;;
809;SDS011;387;48.772;9.186;2023-04-19T10:20:37;20.63;;;10.17;;
809;SDS011;387;48.772;9.186;2023-04-19T10:23:13;20.70;;;10.43;;
809;SDS011;387;48.772;9.186;2023-04-19T10:25:39;17.67;;;11.00;;
809;SDS011;387;48.772;9.186;2023-04-19T10:28:09;22.17;;;10.90;;
809;SDS011;387;48.772;9.186;2023-04-19T10:30:35;21.17;;;10.50;;
809;SDS011;387;48.772;9.186;2023-04-19T10:33:00;20.20;;;11.20;;
809;SDS011;387;48.772;9.186;2023-04-19T10:35:33;22.43;;;10.57;;
809;SDS011;387;48.772;9.186;2023-04-19T10:38:13;17.00;;;9.63;;
809;SDS011;387;48.772;9.186;2023-04-19T10:40:59;19.93;;;9.60;;
809;SDS011;387;48.772;9.186;2023-04-19T10:45:52;20.37;;;9.70;;
809;SDS011;387;48.772;9.186;2023-04-19T10:56:09;20.87;;;11.43;;
809;SDS011;387;48.772;9.186;2023-04-19T11:04:10;18.67;;;10.47;;
809;SDS011;387;48.772;9.186;2023-04-19T11:07:22;18.37;;;9.97;;
809;SDS011;387;48.772;9.186;2023-04-19T11:09:43;18.53;;;10.37;;
809;SDS011;387;48.772;9.186;2023-04-19T11:12:10;19.70;;;10.23;;
809;SDS011;387;48.772;9.186;2023-04-19T11:14:40;21.30;;;9.40;;
809;SDS011;387;48.772;9.186;2023-04-19T11:17:17;19.17;;;10.57;;
809;SDS011;387;48.772;9.186;2023-04-19T11:19:52;19.43;;;10.50;;
809;SDS011;387;48.772;9.186;2023-04-19T11:25:10;20.70;;;10.50;;
809;SDS011;387;48.772;9.186;2023-04-19T11:27:41;22.00;;;10.57;;
809;SDS011;387;48.772;9.186;2023-04-19T11:30:09;20.93;;;10.40;;
809;SDS011;387;48.772;9.186;2023-04-19T11:32:35;19.13;;;10.53;;
809;SDS011;387;48.772;9.186;2023-04-19T11:35:08;21.17;;;11.20;;
809;SDS011;387;48.772;9.186;2023-04-19T11:37:34;17.90;;;10.87;;
809;SDS011;387;48.772;9.186;2023-04-19T11:40:01;22.60;;;11.50;;
809;SDS011;387;48.772;9.186;2023-04-19T11:42:29;24.50;;;11.33;;
809;SDS011;387;48.772;9.186;2023-04-19T11:44:55;21.43;;;11.37;;
809;SDS011;387;48.772;9.186;2023-04-19T11:47:22;20.00;;;10.83;;
809;SDS011;387;48.772;9.186;2023-04-19T11:49:47;19.57;;;10.57;;
809;SDS011;387;48.772;9.186;2023-04-19T11:52:19;27.80;;;12.33;;
809;SDS011;387;48.772;9.186;2023-04-19T11:54:50;21.47;;;11.77;;
809;SDS011;387;48.772;9.186;2023-04-19T11:57:25;26.17;;;12.80;;
809;SDS011;387;48.772;9.186;2023-04-19T12:00:07;23.80;;;13.50;;
809;SDS011;387;48.772;9.186;2023-04-19T12:02:37;29.00;;;14.20;;
809;SDS011;387;48.772;9.186;2023-04-19T12:05:13;26.67;;;14.50;;
809;SDS011;387;48.772;9.186;2023-04-19T12:10:23;30.83;;;15.30;;
809;SDS011;387;48.772;9.186;2023-04-19T12:12:49;31.00;;;15.43;;
809;SDS011;387;48.772;9.186;2023-04-19T12:15:15;27.40;;;15.60;;
809;SDS011;387;48.772;9.186;2023-04-19T12:17:59;28.23;;;14.60;;
809;SDS011;387;48.772;9.186;2023-04-19T12:20:33;35.80;;;15.57;;
809;SDS011;387;48.772;9.186;2023-04-19T12:23:00;35.53;;;16.37;;
809;SDS011;387;48.772;9.186;2023-04-19T12:25:29;28.67;;;15.47;;
809;SDS011;387;48.772;9.186;2023-04-19T12:27:56;29.33;;;16.63;;
809;SDS011;387;48.772;9.186;2023-04-19T12:30:22;34.00;;;16.33;;
809;SDS011;387;48.772;9.186;2023-04-19T12:32:47;31.67;;;16.33;;
809;SDS011;387;48.772;9.186;2023-04-19T12:35:15;35.90;;;16.93;;
809;SDS011;387;48.772;9.186;2023-04-19T12:37:41;28.37;;;15.97;;
809;SDS011;387;48.772;9.186;2023-04-19T12:40:07;32.97;;;16.80;;
809;SDS011;387;48.772;9.186;2023-04-19T12:42:33;33.00;;;16.73;;
809;SDS011;387;48.772;9.186;2023-04-19T12:44:59;38.33;;;18.50;;
809;SDS011;387;48.772;9.186;2023-04-19T12:47:25;39.93;;;18.90;;
809;SDS011;387;48.772;9.186;2023-04-19T12:49:50;38.57;;;17.63;;
809;SDS011;387;48.772;9.186;2023-04-19T12:52:16;35.50;;;15.83;;
809;SDS011;387;48.772;9.186;2023-04-19T12:54:43;32.60;;;17.63;;
809;SDS011;387;48.772;9.186;2023-04-19T12:57:09;36.73;;;17.80;;
809;SDS011;387;48.772;9.186;2023-04-19T12:59:34;33.07;;;16.80;;
809;SDS011;387;48.772;9.186;2023-04-19T13:02:00;42.53;;;19.20;;
809;SDS011;387;48.772;9.186;2023-04-19T13:04:26;33.97;;;17.37;;
809;SDS011;387;48.772;9.186;2023-04-19T13:06:51;40.57;;;19.30;;
809;SDS011;387;48.772;9.186;2023-04-19T13:09:17;32.27;;;16.30;;
809;SDS011;387;48.772;9.186;2023-04-19T13:11:43;30.10;;;16.00;;
809;SDS011;387;48.772;9.186;2023-04-19T13:14:08;25.53;;;14.23;;
809;SDS011;387;48.772;9.186;2023-04-19T13:16:34;34.63;;;15.43;;
809;SDS011;387;48.772;9.186;2023-04-19T13:19:00;31.40;;;16.27;;
809;SDS011;387;48.772;9.186;2023-04-19T13:21:25;31.17;;;14.93;;
809;SDS011;387;48.772;9.186;2023-04-19T13:23:51;34.70;;;15.77;;
809;SDS011;387;48.772;9.186;2023-04-19T13:26:17;27.40;;;14.37;;
809;SDS011;387;48.772;9.186;2023-04-19T13:28:43;29.90;;;16.13;;
809;SDS011;387;48.772;9.186;2023-04-19T13:31:08;29.57;;;13.70;;
809;SDS011;387;48.772;9.186;2023-04-19T13:33:34;31.23;;;15.10;;
809;SDS011;387;48.772;9.186;2023-04-19T13:36:00;28.47;;;14.90;;
809;SDS011;387;48.772;9.186;2023-04-19T13:38:26;29.77;;;14.47;;
809;SDS011;387;48.772;9.186;2023-04-19T13:40:51;25.00;;;13.27;;
809;SDS011;387;48.772;9.186;2023-04-19T13:43:17;25.87;;;14.53;;
809;SDS011;387;48.772;9.186;2023-04-19T13:45:43;25.97;;;13.60;;
809;SDS011;387;48.772;9.186;2023-04-19T13:48:08;23.93;;;13.10;;
809;SDS011;387;48.772;9.186;2023-04-19T13:50:34;26.50;;;13.97;;
809;SDS011;387;48.772;9.186;2023-04-19T13:53:00;19.43;;;11.97;;
809;SDS011;387;48.772;9.186;2023-04-19T13:55:25;34.03;;;15.33;;
809;SDS011;387;48.772;9.186;2023-04-19T13:57:51;25.20;;;13.40;;
809;SDS011;387;48.772;9.186;2023-04-19T14:00:17;35.13;;;16.53;;
809;SDS011;387;48.772;9.186;2023-04-19T14:02:43;23.27;;;13.63;;
809;SDS011;387;48.772;9.186;2023-04-19T14:05:09;23.30;;;12.30;;
809;SDS011;387;48.772;9.186;2023-04-19T14:07:37;28.63;;;13.33;;
809;SDS011;387;48.772;9.186;2023-04-19T14:10:03;21.70;;;12.60;;
809;SDS011;387;48.772;9.186;2023-04-19T14:12:31;24.83;;;11.60;;
809;SDS011;387;48.772;9.186;2023-04-19T14:14:57;22.77;;;11.40;;
809;SDS011;387;48.772;9.186;2023-04-19T14:17:23;19.30;;;11.90;;
809;SDS011;387;48.772;9.186;2023-04-19T14:19:48;18.53;;;11.20;;
809;SDS011;387;48.772;9.186;2023-04-19T14:22:17;21.93;;;11.30;;
809;SDS011;387;48.772;9.186;2023-04-19T14:24:43;21.00;;;11.53;;
809;SDS011;387;48.772;9.186;2023-04-19T14:27:10;20.27;;;12.90;;
809;SDS011;387;48.772;9.186;2023-04-19T14:29:35;20.10;;;11.40;;
809;SDS011;387;48.772;9.186;2023-04-19T14:32:01;17.40;;;10.47;;
809;SDS011;387;48.772;9.186;2023-04-19T14:34:27;20.70;;;11.50;;
809;SDS011;387;48.772;9.186;2023-04-19T14:36:52;22.70;;;12.00;;
809;SDS011;387;48.772;9.186;2023-04-19T14:39:18;21.40;;;12.07;;
809;SDS011;387;48.772;9.186;2023-04-19T14:41:43;19.53;;;12.37;;
809;SDS011;387;48.772;9.186;2023-04-19T14:44:09;20.20;;;11.00;;
809;SDS011;387;48.772;9.186;2023-04-19T14:46:34;20.33;;;10.97;;
809;SDS011;387;48.772;9.186;2023-04-19T14:49:00;21.70;;;12.27;;
809;SDS011;387;48.772;9.186;2023-04-19T14:51:29;21.10;;;11.00;;
809;SDS011;387;48.772;9.186;2023-04-19T14:53:56;28.00;;;12.33;;
809;SDS011;387;48.772;9.186;2023-04-19T14:56:22;21.70;;;12.03;;
809;SDS011;387;48.772;9.186;2023-04-19T14:58:48;19.00;;;10.57;;
809;SDS011;387;48.772;9.186;2023-04-19T15:01:13;19.50;;;10.80;;
809;SDS011;387;48.772;9.186;2023-04-19T15:03:39;20.57;;;11.47;;
809;SDS011;387;48.772;9.186;2023-04-19T15:06:08;22.53;;;11.43;;
809;SDS011;387;48.772;9.186;2023-04-19T15:08:34;19.17;;;11.20;;
809;SDS011;387;48.772;9.186;2023-04-19T15:10:59;29.43;;;11.90;;
809;SDS011;387;48.772;9.186;2023-04-19T15:13:25;18.30;;;11.57;;
809;SDS011;387;48.772;9.186;2023-04-19T15:15:51;25.77;;;11.83;;
809;SDS011;387;48.772;9.186;2023-04-19T15:18:16;17.10;;;11.23;;
809;SDS011;387;48.772;9.186;2023-04-19T15:20:42;21.80;;;10.90;;
809;SDS011;387;48.772;9.186;2023-04-19T15:23:07;19.03;;;11.30;;
809;SDS011;387;48.772;9.186;2023-04-19T15:25:33;23.10;;;12.10;;
809;SDS011;387;48.772;9.186;2023-04-19T15:27:59;24.57;;;11.27;;
809;SDS011;387;48.772;9.186;2023-04-19T15:30:25;18.00;;;10.90;;
809;SDS011;387;48.772;9.186;2023-04-19T15:32:50;17.20;;;10.50;;
809;SDS011;387;48.772;9.186;2023-04-19T15:35:16;20.40;;;11.43;;
809;SDS011;387;48.772;9.186;2023-04-19T15:37:42;19.33;;;11.03;;